sensor_id;sensor_type;location;lat;lon;timestamp;P1;durP1;ratioP1;P2;durP2;ratioP2
11847;SDS011;5983;49.966;8.052;2023-06-14T00:00:46;3.50;;;3.00;;
11847;SDS011;5983;49.966;8.052;2023-06-14T00:03:14;4.50;;;3.20;;
11847;SDS011;5983;49.966;8.052;2023-06-14T00:05:43;4.13;;;3.13;;
11847;SDS011;5983;49.966;8.052;2023-06-14T00:08:11;4.00;;;3.10;;
11847;SDS011;5983;49.966;8.052;2023-06-14T00:10:40;6.10;;;3.93;;
11847;SDS011;5983;49.966;8.052;2023-06-14T00:13:07;5.53;;;3.10;;
11847;SDS011;5983;49.966;8.052;2023-06-14T00:15:34;4.90;;;3.43;;
11847;SDS011;5983;49.966;8.052;2023-06-14T00:18:02;3.73;;;3.10;;
11847;SDS011;5983;49.966;8.052;2023-06-14T00:20:31;4.83;;;2.90;;
11847;SDS011;5983;49.966;8.052;2023-06-14T00:23:00;5.23;;;3.53;;
11847;SDS011;5983;49.966;8.052;2023-06-14T00:25:28;4.30;;;3.10;;
11847;SDS011;5983;49.966;8.052;2023-06-14T00:27:55;4.40;;;3.20;;
11847;SDS011;5983;49.966;8.052;2023-06-14T00:30:23;6.53;;;3.40;;
11847;SDS011;5983;49.966;8.052;2023-06-14T00:32:55;6.03;;;3.00;;
11847;SDS011;5983;49.966;8.052;2023-06-14T00:35:22;8.93;;;3.37;;
11847;SDS011;5983;49.966;8.052;2023-06-14T00:37:50;4.17;;;3.40;;
11847;SDS011;5983;49.966;8.052;2023-06-14T00:40:18;4.17;;;3.40;;
11847;SDS011;5983;49.966;8.052;2023-06-14T00:42:45;4.00;;;3.10;;
11847;SDS011;5983;49.966;8.052;2023-06-14T00:45:12;4.40;;;2.90;;
11847;SDS011;5983;49.966;8.052;2023-06-14T00:47:40;4.80;;;3.30;;
11847;SDS011;5983;49.966;8.052;2023-06-14T00:50:09;4.63;;;3.20;;
11847;SDS011;5983;49.966;8.052;2023-06-14T00:52:38;4.50;;;3.43;;
11847;SDS011;5983;49.966;8.052;2023-06-14T00:55:06;8.93;;;3.40;;
11847;SDS011;5983;49.966;8.052;2023-06-14T00:57:35;5.93;;;3.50;;
11847;SDS011;5983;49.966;8.052;2023-06-14T01:00:05;3.23;;;2.80;;
11847;SDS011;5983;49.966;8.052;2023-06-14T01:02:34;4.63;;;3.50;;
11847;SDS011;5983;49.966;8.052;2023-06-14T01:05:03;6.13;;;3.13;;
11847;SDS011;5983;49.966;8.052;2023-06-14T01:07:33;5.40;;;2.97;;
11847;SDS011;5983;49.966;8.052;2023-06-14T01:10:18;4.93;;;3.33;;
11847;SDS011;5983;49.966;8.052;2023-06-14T01:13:05;4.07;;;3.40;;
11847;SDS011;5983;49.966;8.052;2023-06-14T01:15:38;4.33;;;3.40;;
11847;SDS011;5983;49.966;8.052;2023-06-14T01:18:08;6.33;;;3.43;;
11847;SDS011;5983;49.966;8.052;2023-06-14T01:20:42;4.13;;;2.90;;
11847;SDS011;5983;49.966;8.052;2023-06-14T01:23:15;4.30;;;2.90;;
11847;SDS011;5983;49.966;8.052;2023-06-14T01:25:43;6.10;;;3.10;;
11847;SDS011;5983;49.966;8.052;2023-06-14T01:28:10;4.23;;;2.80;;
11847;SDS011;5983;49.966;8.052;2023-06-14T01:30:40;4.63;;;3.40;;
11847;SDS011;5983;49.966;8.052;2023-06-14T01:33:11;5.87;;;3.43;;
11847;SDS011;5983;49.966;8.052;2023-06-14T01:35:40;7.87;;;2.83;;
11847;SDS011;5983;49.966;8.052;2023-06-14T01:38:09;4.77;;;2.80;;
11847;SDS011;5983;49.966;8.052;2023-06-14T01:40:37;3.13;;;2.83;;
11847;SDS011;5983;49.966;8.052;2023-06-14T01:43:06;4.53;;;3.43;;
11847;SDS011;5983;49.966;8.052;2023-06-14T01:45:34;4.63;;;2.87;;
11847;SDS011;5983;49.966;8.052;2023-06-14T01:48:03;4.27;;;3.17;;
11847;SDS011;5983;49.966;8.052;2023-06-14T01:50:31;5.13;;;3.80;;
11847;SDS011;5983;49.966;8.052;2023-06-14T01:52:58;3.33;;;2.97;;
11847;SDS011;5983;49.966;8.052;2023-06-14T01:55:25;5.67;;;2.90;;
11847;SDS011;5983;49.966;8.052;2023-06-14T01:57:54;3.27;;;2.80;;
11847;SDS011;5983;49.966;8.052;2023-06-14T02:00:21;5.27;;;3.20;;
11847;SDS011;5983;49.966;8.052;2023-06-14T02:02:48;4.57;;;2.97;;
11847;SDS011;5983;49.966;8.052;2023-06-14T02:05:15;3.77;;;3.30;;
11847;SDS011;5983;49.966;8.052;2023-06-14T02:07:43;4.17;;;3.17;;
11847;SDS011;5983;49.966;8.052;2023-06-14T02:10:11;3.47;;;2.73;;
11847;SDS011;5983;49.966;8.052;2023-06-14T02:12:40;4.73;;;3.00;;
11847;SDS011;5983;49.966;8.052;2023-06-14T02:15:09;3.60;;;3.23;;
11847;SDS011;5983;49.966;8.052;2023-06-14T02:17:41;3.97;;;3.40;;
11847;SDS011;5983;49.966;8.052;2023-06-14T02:20:08;3.20;;;2.80;;
11847;SDS011;5983;49.966;8.052;2023-06-14T02:22:37;3.37;;;2.70;;
11847;SDS011;5983;49.966;8.052;2023-06-14T02:25:04;5.30;;;2.87;;
11847;SDS011;5983;49.966;8.052;2023-06-14T02:27:32;4.07;;;3.60;;
11847;SDS011;5983;49.966;8.052;2023-06-14T02:29:59;5.00;;;3.03;;
11847;SDS011;5983;49.966;8.052;2023-06-14T02:32:28;4.87;;;3.57;;
11847;SDS011;5983;49.966;8.052;2023-06-14T02:34:54;3.57;;;3.07;;
11847;SDS011;5983;49.966;8.052;2023-06-14T02:37:22;3.50;;;3.03;;
11847;SDS011;5983;49.966;8.052;2023-06-14T02:39:49;3.90;;;2.87;;
11847;SDS011;5983;49.966;8.052;2023-06-14T02:42:16;3.30;;;3.00;;
11847;SDS011;5983;49.966;8.052;2023-06-14T02:44:43;5.50;;;2.80;;
11847;SDS011;5983;49.966;8.052;2023-06-14T02:47:11;4.60;;;3.10;;
11847;SDS011;5983;49.966;8.052;2023-06-14T02:49:39;3.53;;;2.57;;
11847;SDS011;5983;49.966;8.052;2023-06-14T02:52:06;4.00;;;3.07;;
11847;SDS011;5983;49.966;8.052;2023-06-14T02:54:35;3.67;;;3.00;;
11847;SDS011;5983;49.966;8.052;2023-06-14T02:57:02;4.27;;;2.87;;
11847;SDS011;5983;49.966;8.052;2023-06-14T02:59:32;5.93;;;2.60;;
11847;SDS011;5983;49.966;8.052;2023-06-14T03:01:59;4.00;;;2.73;;
11847;SDS011;5983;49.966;8.052;2023-06-14T03:04:26;4.60;;;3.20;;
11847;SDS011;5983;49.966;8.052;2023-06-14T03:06:55;4.60;;;2.80;;
11847;SDS011;5983;49.966;8.052;2023-06-14T03:09:22;3.33;;;2.93;;
11847;SDS011;5983;49.966;8.052;2023-06-14T03:11:49;3.73;;;2.57;;
11847;SDS011;5983;49.966;8.052;2023-06-14T03:14:16;5.10;;;3.50;;
11847;SDS011;5983;49.966;8.052;2023-06-14T03:16:44;4.07;;;3.10;;
11847;SDS011;5983;49.966;8.052;2023-06-14T03:19:11;6.97;;;3.50;;
11847;SDS011;5983;49.966;8.052;2023-06-14T03:21:38;4.03;;;2.90;;
11847;SDS011;5983;49.966;8.052;2023-06-14T03:24:09;4.13;;;3.03;;
11847;SDS011;5983;49.966;8.052;2023-06-14T03:26:36;4.17;;;2.90;;
11847;SDS011;5983;49.966;8.052;2023-06-14T03:29:03;5.03;;;3.03;;
11847;SDS011;5983;49.966;8.052;2023-06-14T03:31:30;2.90;;;2.60;;
11847;SDS011;5983;49.966;8.052;2023-06-14T03:33:58;5.90;;;2.67;;
11847;SDS011;5983;49.966;8.052;2023-06-14T03:36:25;6.83;;;3.47;;
11847;SDS011;5983;49.966;8.052;2023-06-14T03:38:53;6.87;;;3.33;;
11847;SDS011;5983;49.966;8.052;2023-06-14T03:41:22;3.60;;;3.00;;
11847;SDS011;5983;49.966;8.052;2023-06-14T03:43:49;5.33;;;2.63;;
11847;SDS011;5983;49.966;8.052;2023-06-14T03:46:15;5.97;;;3.10;;
11847;SDS011;5983;49.966;8.052;2023-06-14T03:48:42;3.00;;;2.70;;
11847;SDS011;5983;49.966;8.052;2023-06-14T03:51:10;3.87;;;2.80;;
11847;SDS011;5983;49.966;8.052;2023-06-14T03:53:37;5.90;;;3.30;;
11847;SDS011;5983;49.966;8.052;2023-06-14T03:56:04;5.07;;;2.87;;
11847;SDS011;5983;49.966;8.052;2023-06-14T03:58:33;4.87;;;2.73;;
11847;SDS011;5983;49.966;8.052;2023-06-14T04:01:00;4.27;;;2.87;;
11847;SDS011;5983;49.966;8.052;2023-06-14T04:03:27;4.63;;;2.90;;
11847;SDS011;5983;49.966;8.052;2023-06-14T04:05:54;3.33;;;2.67;;
11847;SDS011;5983;49.966;8.052;2023-06-14T04:08:24;4.27;;;2.77;;
11847;SDS011;5983;49.966;8.052;2023-06-14T04:10:51;4.23;;;3.03;;
11847;SDS011;5983;49.966;8.052;2023-06-14T04:13:18;3.80;;;3.00;;
11847;SDS011;5983;49.966;8.052;2023-06-14T04:15:47;4.70;;;2.50;;
11847;SDS011;5983;49.966;8.052;2023-06-14T04:18:14;3.90;;;3.30;;
11847;SDS011;5983;49.966;8.052;2023-06-14T04:20:41;4.17;;;2.90;;
11847;SDS011;5983;49.966;8.052;2023-06-14T04:23:12;6.97;;;2.80;;
11847;SDS011;5983;49.966;8.052;2023-06-14T04:25:40;5.93;;;3.07;;
11847;SDS011;5983;49.966;8.052;2023-06-14T04:28:09;3.60;;;2.50;;
11847;SDS011;5983;49.966;8.052;2023-06-14T04:30:37;3.13;;;2.77;;
11847;SDS011;5983;49.966;8.052;2023-06-14T04:33:07;5.10;;;3.03;;
11847;SDS011;5983;49.966;8.052;2023-06-14T04:35:34;3.73;;;2.97;;
11847;SDS011;5983;49.966;8.052;2023-06-14T04:38:02;5.33;;;3.10;;
11847;SDS011;5983;49.966;8.052;2023-06-14T04:40:34;3.07;;;2.50;;
11847;SDS011;5983;49.966;8.052;2023-06-14T04:43:07;4.67;;;2.63;;
11847;SDS011;5983;49.966;8.052;2023-06-14T04:45:37;8.53;;;2.67;;
11847;SDS011;5983;49.966;8.052;2023-06-14T04:48:06;3.37;;;2.80;;
11847;SDS011;5983;49.966;8.052;2023-06-14T04:50:33;4.80;;;2.67;;
11847;SDS011;5983;49.966;8.052;2023-06-14T04:53:01;4.67;;;2.73;;
11847;SDS011;5983;49.966;8.052;2023-06-14T04:55:28;3.97;;;3.10;;
11847;SDS011;5983;49.966;8.052;2023-06-14T04:57:56;4.17;;;2.80;;
11847;SDS011;5983;49.966;8.052;2023-06-14T05:00:23;2.97;;;2.70;;
11847;SDS011;5983;49.966;8.052;2023-06-14T05:02:50;4.73;;;3.00;;
11847;SDS011;5983;49.966;8.052;2023-06-14T05:05:19;5.03;;;2.87;;
11847;SDS011;5983;49.966;8.052;2023-06-14T05:07:46;3.97;;;3.00;;
11847;SDS011;5983;49.966;8.052;2023-06-14T05:10:13;8.03;;;3.27;;
11847;SDS011;5983;49.966;8.052;2023-06-14T05:12:40;3.97;;;2.93;;
11847;SDS011;5983;49.966;8.052;2023-06-14T05:15:09;8.10;;;3.03;;
11847;SDS011;5983;49.966;8.052;2023-06-14T05:17:36;5.47;;;3.00;;
11847;SDS011;5983;49.966;8.052;2023-06-14T05:20:05;6.70;;;2.60;;
11847;SDS011;5983;49.966;8.052;2023-06-14T05:22:37;6.90;;;3.13;;
11847;SDS011;5983;49.966;8.052;2023-06-14T05:25:04;4.70;;;2.80;;
11847;SDS011;5983;49.966;8.052;2023-06-14T05:27:32;4.67;;;2.93;;
11847;SDS011;5983;49.966;8.052;2023-06-14T05:30:00;7.77;;;3.23;;
11847;SDS011;5983;49.966;8.052;2023-06-14T05:32:28;8.10;;;3.20;;
11847;SDS011;5983;49.966;8.052;2023-06-14T05:34:56;3.53;;;2.60;;
11847;SDS011;5983;49.966;8.052;2023-06-14T05:37:23;3.53;;;2.87;;
11847;SDS011;5983;49.966;8.052;2023-06-14T05:39:51;4.77;;;3.20;;
11847;SDS011;5983;49.966;8.052;2023-06-14T05:42:18;3.43;;;2.87;;
11847;SDS011;5983;49.966;8.052;2023-06-14T05:44:45;3.13;;;2.80;;
11847;SDS011;5983;49.966;8.052;2023-06-14T05:47:12;4.63;;;2.80;;
11847;SDS011;5983;49.966;8.052;2023-06-14T05:49:39;4.57;;;2.87;;
11847;SDS011;5983;49.966;8.052;2023-06-14T05:52:06;6.90;;;2.50;;
11847;SDS011;5983;49.966;8.052;2023-06-14T05:54:35;3.50;;;2.70;;
11847;SDS011;5983;49.966;8.052;2023-06-14T05:57:03;2.70;;;2.50;;
11847;SDS011;5983;49.966;8.052;2023-06-14T05:59:31;4.93;;;2.63;;
11847;SDS011;5983;49.966;8.052;2023-06-14T06:01:58;5.90;;;2.63;;
11847;SDS011;5983;49.966;8.052;2023-06-14T06:04:25;5.60;;;2.83;;
11847;SDS011;5983;49.966;8.052;2023-06-14T06:06:52;3.23;;;2.30;;
11847;SDS011;5983;49.966;8.052;2023-06-14T06:09:19;4.17;;;2.57;;
11847;SDS011;5983;49.966;8.052;2023-06-14T06:11:46;3.70;;;2.47;;
11847;SDS011;5983;49.966;8.052;2023-06-14T06:14:14;7.27;;;2.30;;
11847;SDS011;5983;49.966;8.052;2023-06-14T06:16:41;2.60;;;2.03;;
11847;SDS011;5983;49.966;8.052;2023-06-14T06:19:08;8.47;;;2.47;;
11847;SDS011;5983;49.966;8.052;2023-06-14T06:21:35;3.40;;;2.00;;
11847;SDS011;5983;49.966;8.052;2023-06-14T06:24:02;6.17;;;2.20;;
11847;SDS011;5983;49.966;8.052;2023-06-14T06:26:31;8.87;;;2.17;;
11847;SDS011;5983;49.966;8.052;2023-06-14T06:28:58;3.43;;;2.03;;
11847;SDS011;5983;49.966;8.052;2023-06-14T06:31:26;6.23;;;2.83;;
11847;SDS011;5983;49.966;8.052;2023-06-14T06:33:53;7.20;;;2.17;;
11847;SDS011;5983;49.966;8.052;2023-06-14T06:36:20;7.33;;;2.70;;
11847;SDS011;5983;49.966;8.052;2023-06-14T06:38:47;3.30;;;2.23;;
11847;SDS011;5983;49.966;8.052;2023-06-14T06:41:14;4.50;;;2.17;;
11847;SDS011;5983;49.966;8.052;2023-06-14T06:43:41;3.27;;;2.10;;
11847;SDS011;5983;49.966;8.052;2023-06-14T06:46:08;2.50;;;1.83;;
11847;SDS011;5983;49.966;8.052;2023-06-14T06:48:36;4.27;;;1.93;;
11847;SDS011;5983;49.966;8.052;2023-06-14T06:51:03;2.30;;;2.10;;
11847;SDS011;5983;49.966;8.052;2023-06-14T06:53:30;4.70;;;2.10;;
11847;SDS011;5983;49.966;8.052;2023-06-14T06:55:57;12.90;;;2.33;;
11847;SDS011;5983;49.966;8.052;2023-06-14T06:58:24;5.37;;;2.40;;
11847;SDS011;5983;49.966;8.052;2023-06-14T07:00:51;5.33;;;2.33;;
11847;SDS011;5983;49.966;8.052;2023-06-14T07:03:17;8.50;;;2.03;;
11847;SDS011;5983;49.966;8.052;2023-06-14T07:05:46;5.57;;;1.93;;
11847;SDS011;5983;49.966;8.052;2023-06-14T07:08:13;3.50;;;2.30;;
11847;SDS011;5983;49.966;8.052;2023-06-14T07:10:40;7.90;;;2.27;;
11847;SDS011;5983;49.966;8.052;2023-06-14T07:13:06;3.50;;;2.33;;
11847;SDS011;5983;49.966;8.052;2023-06-14T07:15:33;9.40;;;2.80;;
11847;SDS011;5983;49.966;8.052;2023-06-14T07:18:01;3.87;;;2.47;;
11847;SDS011;5983;49.966;8.052;2023-06-14T07:20:27;8.87;;;1.70;;
11847;SDS011;5983;49.966;8.052;2023-06-14T07:22:57;3.27;;;2.03;;
11847;SDS011;5983;49.966;8.052;2023-06-14T07:25:24;6.93;;;2.70;;
11847;SDS011;5983;49.966;8.052;2023-06-14T07:27:51;4.97;;;2.87;;
11847;SDS011;5983;49.966;8.052;2023-06-14T07:30:18;2.43;;;1.60;;
11847;SDS011;5983;49.966;8.052;2023-06-14T07:32:45;3.13;;;1.80;;
11847;SDS011;5983;49.966;8.052;2023-06-14T07:35:12;4.90;;;1.90;;
11847;SDS011;5983;49.966;8.052;2023-06-14T07:37:39;5.50;;;2.20;;
11847;SDS011;5983;49.966;8.052;2023-06-14T07:40:08;7.40;;;2.13;;
11847;SDS011;5983;49.966;8.052;2023-06-14T07:42:36;3.30;;;1.93;;
11847;SDS011;5983;49.966;8.052;2023-06-14T07:45:03;6.23;;;2.50;;
11847;SDS011;5983;49.966;8.052;2023-06-14T07:47:32;4.63;;;2.10;;
11847;SDS011;5983;49.966;8.052;2023-06-14T07:49:59;2.50;;;1.90;;
11847;SDS011;5983;49.966;8.052;2023-06-14T07:52:26;1.90;;;1.63;;
11847;SDS011;5983;49.966;8.052;2023-06-14T07:54:53;3.43;;;1.60;;
11847;SDS011;5983;49.966;8.052;2023-06-14T07:57:21;1.73;;;1.50;;
11847;SDS011;5983;49.966;8.052;2023-06-14T07:59:48;1.90;;;1.60;;
11847;SDS011;5983;49.966;8.052;2023-06-14T08:02:15;4.20;;;1.33;;
11847;SDS011;5983;49.966;8.052;2023-06-14T08:04:43;3.67;;;1.80;;
11847;SDS011;5983;49.966;8.052;2023-06-14T08:07:10;2.57;;;1.70;;
11847;SDS011;5983;49.966;8.052;2023-06-14T08:09:37;2.03;;;1.37;;
11847;SDS011;5983;49.966;8.052;2023-06-14T08:12:04;1.47;;;1.37;;
11847;SDS011;5983;49.966;8.052;2023-06-14T08:14:36;1.73;;;1.60;;
11847;SDS011;5983;49.966;8.052;2023-06-14T08:17:03;2.43;;;1.80;;
11847;SDS011;5983;49.966;8.052;2023-06-14T08:19:30;2.43;;;1.40;;
11847;SDS011;5983;49.966;8.052;2023-06-14T08:21:57;1.40;;;1.30;;
11847;SDS011;5983;49.966;8.052;2023-06-14T08:24:24;2.90;;;1.63;;
11847;SDS011;5983;49.966;8.052;2023-06-14T08:26:52;1.50;;;1.40;;
11847;SDS011;5983;49.966;8.052;2023-06-14T08:29:19;3.33;;;1.40;;
11847;SDS011;5983;49.966;8.052;2023-06-14T08:31:48;3.37;;;1.33;;
11847;SDS011;5983;49.966;8.052;2023-06-14T08:34:15;4.47;;;1.30;;
11847;SDS011;5983;49.966;8.052;2023-06-14T08:36:42;10.53;;;2.13;;
11847;SDS011;5983;49.966;8.052;2023-06-14T08:39:08;3.73;;;1.70;;
11847;SDS011;5983;49.966;8.052;2023-06-14T08:41:36;4.00;;;1.73;;
11847;SDS011;5983;49.966;8.052;2023-06-14T08:44:03;3.63;;;1.50;;
11847;SDS011;5983;49.966;8.052;2023-06-14T08:46:32;3.50;;;1.50;;
11847;SDS011;5983;49.966;8.052;2023-06-14T08:49:01;1.83;;;1.30;;
11847;SDS011;5983;49.966;8.052;2023-06-14T08:51:30;2.37;;;1.27;;
11847;SDS011;5983;49.966;8.052;2023-06-14T08:53:59;2.10;;;1.30;;
11847;SDS011;5983;49.966;8.052;2023-06-14T08:56:29;1.77;;;1.50;;
11847;SDS011;5983;49.966;8.052;2023-06-14T08:58:57;1.87;;;1.50;;
11847;SDS011;5983;49.966;8.052;2023-06-14T09:01:27;3.57;;;1.67;;
11847;SDS011;5983;49.966;8.052;2023-06-14T09:03:56;2.10;;;1.40;;
11847;SDS011;5983;49.966;8.052;2023-06-14T09:06:25;1.60;;;1.40;;
11847;SDS011;5983;49.966;8.052;2023-06-14T09:08:53;1.70;;;1.37;;
11847;SDS011;5983;49.966;8.052;2023-06-14T09:11:22;2.37;;;1.43;;
11847;SDS011;5983;49.966;8.052;2023-06-14T09:13:51;2.53;;;1.60;;
11847;SDS011;5983;49.966;8.052;2023-06-14T09:16:18;1.63;;;1.20;;
11847;SDS011;5983;49.966;8.052;2023-06-14T09:18:46;2.13;;;1.50;;
11847;SDS011;5983;49.966;8.052;2023-06-14T09:21:14;3.63;;;1.37;;
11847;SDS011;5983;49.966;8.052;2023-06-14T09:23:44;1.60;;;1.30;;
11847;SDS011;5983;49.966;8.052;2023-06-14T09:26:14;2.77;;;1.83;;
11847;SDS011;5983;49.966;8.052;2023-06-14T09:28:42;3.30;;;1.50;;
11847;SDS011;5983;49.966;8.052;2023-06-14T09:31:11;1.97;;;1.20;;
11847;SDS011;5983;49.966;8.052;2023-06-14T09:33:41;3.97;;;1.43;;
11847;SDS011;5983;49.966;8.052;2023-06-14T09:36:13;4.60;;;1.83;;
11847;SDS011;5983;49.966;8.052;2023-06-14T09:38:52;2.03;;;1.53;;
11847;SDS011;5983;49.966;8.052;2023-06-14T09:41:20;3.70;;;1.47;;
11847;SDS011;5983;49.966;8.052;2023-06-14T09:43:47;4.50;;;1.57;;
11847;SDS011;5983;49.966;8.052;2023-06-14T09:46:15;2.47;;;1.50;;
11847;SDS011;5983;49.966;8.052;2023-06-14T09:48:43;1.97;;;1.47;;
11847;SDS011;5983;49.966;8.052;2023-06-14T09:51:10;1.50;;;1.17;;
11847;SDS011;5983;49.966;8.052;2023-06-14T09:53:42;1.23;;;1.00;;
11847;SDS011;5983;49.966;8.052;2023-06-14T09:56:14;2.70;;;1.17;;
11847;SDS011;5983;49.966;8.052;2023-06-14T09:58:49;2.47;;;1.07;;
11847;SDS011;5983;49.966;8.052;2023-06-14T10:01:20;1.13;;;1.03;;
11847;SDS011;5983;49.966;8.052;2023-06-14T10:03:48;1.10;;;1.00;;
11847;SDS011;5983;49.966;8.052;2023-06-14T10:06:22;1.10;;;1.00;;
11847;SDS011;5983;49.966;8.052;2023-06-14T10:08:51;4.00;;;0.93;;
11847;SDS011;5983;49.966;8.052;2023-06-14T10:11:23;1.47;;;1.10;;
11847;SDS011;5983;49.966;8.052;2023-06-14T10:13:52;1.23;;;1.10;;
11847;SDS011;5983;49.966;8.052;2023-06-14T10:16:23;1.53;;;1.10;;
11847;SDS011;5983;49.966;8.052;2023-06-14T10:19:00;1.63;;;1.10;;
11847;SDS011;5983;49.966;8.052;2023-06-14T10:21:37;1.63;;;1.10;;
11847;SDS011;5983;49.966;8.052;2023-06-14T10:24:14;1.67;;;1.10;;
11847;SDS011;5983;49.966;8.052;2023-06-14T10:26:51;1.33;;;1.00;;
11847;SDS011;5983;49.966;8.052;2023-06-14T10:29:20;1.20;;;1.10;;
11847;SDS011;5983;49.966;8.052;2023-06-14T10:31:48;1.17;;;1.00;;
11847;SDS011;5983;49.966;8.052;2023-06-14T10:34:22;4.30;;;1.00;;
11847;SDS011;5983;49.966;8.052;2023-06-14T10:37:01;1.03;;;0.80;;
11847;SDS011;5983;49.966;8.052;2023-06-14T10:39:30;1.57;;;1.00;;
11847;SDS011;5983;49.966;8.052;2023-06-14T10:42:01;2.80;;;1.17;;
11847;SDS011;5983;49.966;8.052;2023-06-14T10:44:30;2.27;;;1.10;;
11847;SDS011;5983;49.966;8.052;2023-06-14T10:47:06;1.50;;;1.23;;
11847;SDS011;5983;49.966;8.052;2023-06-14T10:49:49;2.53;;;1.23;;
11847;SDS011;5983;49.966;8.052;2023-06-14T10:52:20;1.60;;;1.13;;
11847;SDS011;5983;49.966;8.052;2023-06-14T10:57:39;0.70;;;0.70;;
11847;SDS011;5983;49.966;8.052;2023-06-14T11:00:09;1.40;;;1.30;;
11847;SDS011;5983;49.966;8.052;2023-06-14T11:02:59;1.07;;;0.93;;
11847;SDS011;5983;49.966;8.052;2023-06-14T11:06:14;0.73;;;0.70;;
11847;SDS011;5983;49.966;8.052;2023-06-14T11:11:59;1.27;;;1.17;;
11847;SDS011;5983;49.966;8.052;2023-06-14T11:14:30;0.93;;;0.90;;
11847;SDS011;5983;49.966;8.052;2023-06-14T11:16:57;1.60;;;1.03;;
11847;SDS011;5983;49.966;8.052;2023-06-14T11:19:25;2.97;;;1.10;;
11847;SDS011;5983;49.966;8.052;2023-06-14T11:21:53;1.30;;;1.20;;
11847;SDS011;5983;49.966;8.052;2023-06-14T11:24:21;1.47;;;1.10;;
11847;SDS011;5983;49.966;8.052;2023-06-14T11:26:47;1.30;;;1.17;;
11847;SDS011;5983;49.966;8.052;2023-06-14T11:29:15;2.30;;;1.03;;
11847;SDS011;5983;49.966;8.052;2023-06-14T11:31:44;1.10;;;1.00;;
11847;SDS011;5983;49.966;8.052;2023-06-14T11:34:11;1.63;;;0.90;;
11847;SDS011;5983;49.966;8.052;2023-06-14T11:36:39;2.77;;;1.20;;
11847;SDS011;5983;49.966;8.052;2023-06-14T11:39:06;1.23;;;1.10;;
11847;SDS011;5983;49.966;8.052;2023-06-14T11:41:37;2.17;;;1.10;;
11847;SDS011;5983;49.966;8.052;2023-06-14T11:44:06;1.30;;;1.10;;
11847;SDS011;5983;49.966;8.052;2023-06-14T11:46:34;1.50;;;1.30;;
11847;SDS011;5983;49.966;8.052;2023-06-14T11:49:03;2.33;;;1.50;;
11847;SDS011;5983;49.966;8.052;2023-06-14T11:51:32;1.30;;;1.20;;
11847;SDS011;5983;49.966;8.052;2023-06-14T11:54:00;1.20;;;1.10;;
11847;SDS011;5983;49.966;8.052;2023-06-14T11:56:29;3.40;;;1.00;;
11847;SDS011;5983;49.966;8.052;2023-06-14T11:58:56;1.20;;;1.10;;
11847;SDS011;5983;49.966;8.052;2023-06-14T12:01:24;1.23;;;1.13;;
11847;SDS011;5983;49.966;8.052;2023-06-14T12:03:52;5.93;;;1.10;;
11847;SDS011;5983;49.966;8.052;2023-06-14T12:06:28;1.20;;;1.10;;
11847;SDS011;5983;49.966;8.052;2023-06-14T12:09:03;2.30;;;1.57;;
11847;SDS011;5983;49.966;8.052;2023-06-14T12:11:32;2.53;;;1.30;;
11847;SDS011;5983;49.966;8.052;2023-06-14T12:14:02;1.80;;;1.10;;
11847;SDS011;5983;49.966;8.052;2023-06-14T12:16:30;1.10;;;1.00;;
11847;SDS011;5983;49.966;8.052;2023-06-14T12:19:00;1.20;;;1.10;;
11847;SDS011;5983;49.966;8.052;2023-06-14T12:21:36;2.77;;;1.33;;
11847;SDS011;5983;49.966;8.052;2023-06-14T12:24:05;1.20;;;1.10;;
11847;SDS011;5983;49.966;8.052;2023-06-14T12:26:33;1.40;;;1.10;;
11847;SDS011;5983;49.966;8.052;2023-06-14T12:29:04;4.87;;;1.07;;
11847;SDS011;5983;49.966;8.052;2023-06-14T12:31:31;1.43;;;0.90;;
11847;SDS011;5983;49.966;8.052;2023-06-14T12:33:58;1.70;;;1.10;;
11847;SDS011;5983;49.966;8.052;2023-06-14T12:36:26;1.27;;;1.17;;
11847;SDS011;5983;49.966;8.052;2023-06-14T12:38:54;1.00;;;0.90;;
11847;SDS011;5983;49.966;8.052;2023-06-14T12:41:21;1.10;;;1.00;;
11847;SDS011;5983;49.966;8.052;2023-06-14T12:43:49;1.57;;;1.20;;
11847;SDS011;5983;49.966;8.052;2023-06-14T12:46:16;3.40;;;1.40;;
11847;SDS011;5983;49.966;8.052;2023-06-14T12:48:43;1.07;;;0.97;;
11847;SDS011;5983;49.966;8.052;2023-06-14T12:51:10;2.47;;;1.30;;
11847;SDS011;5983;49.966;8.052;2023-06-14T12:53:37;2.27;;;1.40;;
11847;SDS011;5983;49.966;8.052;2023-06-14T12:56:06;3.43;;;1.20;;
11847;SDS011;5983;49.966;8.052;2023-06-14T12:58:33;4.07;;;1.20;;
11847;SDS011;5983;49.966;8.052;2023-06-14T13:00:59;1.47;;;1.07;;
11847;SDS011;5983;49.966;8.052;2023-06-14T13:03:27;1.20;;;1.00;;
11847;SDS011;5983;49.966;8.052;2023-06-14T13:05:53;1.23;;;1.13;;
11847;SDS011;5983;49.966;8.052;2023-06-14T13:08:21;1.47;;;1.20;;
11847;SDS011;5983;49.966;8.052;2023-06-14T13:10:48;1.60;;;1.10;;
11847;SDS011;5983;49.966;8.052;2023-06-14T13:13:16;1.63;;;1.10;;
11847;SDS011;5983;49.966;8.052;2023-06-14T13:15:43;2.20;;;1.47;;
11847;SDS011;5983;49.966;8.052;2023-06-14T13:18:11;2.37;;;1.20;;
11847;SDS011;5983;49.966;8.052;2023-06-14T13:20:38;2.07;;;1.03;;
11847;SDS011;5983;49.966;8.052;2023-06-14T13:23:05;1.50;;;1.40;;
11847;SDS011;5983;49.966;8.052;2023-06-14T13:25:33;2.13;;;1.67;;
11847;SDS011;5983;49.966;8.052;2023-06-14T13:28:00;1.20;;;1.10;;
11847;SDS011;5983;49.966;8.052;2023-06-14T13:30:29;3.03;;;1.57;;
11847;SDS011;5983;49.966;8.052;2023-06-14T13:32:56;2.13;;;1.20;;
11847;SDS011;5983;49.966;8.052;2023-06-14T13:35:23;1.90;;;1.70;;
11847;SDS011;5983;49.966;8.052;2023-06-14T13:37:51;1.40;;;1.03;;
11847;SDS011;5983;49.966;8.052;2023-06-14T13:40:18;5.00;;;1.50;;
11847;SDS011;5983;49.966;8.052;2023-06-14T13:42:45;2.53;;;1.60;;
11847;SDS011;5983;49.966;8.052;2023-06-14T13:45:13;4.67;;;2.17;;
11847;SDS011;5983;49.966;8.052;2023-06-14T13:47:43;1.93;;;1.40;;
11847;SDS011;5983;49.966;8.052;2023-06-14T13:50:13;2.40;;;1.50;;
11847;SDS011;5983;49.966;8.052;2023-06-14T13:52:41;1.83;;;1.40;;
11847;SDS011;5983;49.966;8.052;2023-06-14T13:55:08;2.00;;;1.50;;
11847;SDS011;5983;49.966;8.052;2023-06-14T13:57:35;1.67;;;1.57;;
11847;SDS011;5983;49.966;8.052;2023-06-14T14:00:02;4.87;;;1.50;;
11847;SDS011;5983;49.966;8.052;2023-06-14T14:02:31;4.20;;;1.60;;
11847;SDS011;5983;49.966;8.052;2023-06-14T14:04:59;4.20;;;1.40;;
11847;SDS011;5983;49.966;8.052;2023-06-14T14:07:26;3.77;;;1.30;;
11847;SDS011;5983;49.966;8.052;2023-06-14T14:09:54;1.63;;;1.43;;
11847;SDS011;5983;49.966;8.052;2023-06-14T14:12:22;3.00;;;1.77;;
11847;SDS011;5983;49.966;8.052;2023-06-14T14:14:50;1.73;;;1.40;;
11847;SDS011;5983;49.966;8.052;2023-06-14T14:17:17;2.23;;;1.50;;
11847;SDS011;5983;49.966;8.052;2023-06-14T14:19:44;3.03;;;1.30;;
11847;SDS011;5983;49.966;8.052;2023-06-14T14:22:12;1.63;;;1.20;;
11847;SDS011;5983;49.966;8.052;2023-06-14T14:24:39;2.90;;;1.50;;
11847;SDS011;5983;49.966;8.052;2023-06-14T14:27:06;1.30;;;1.20;;
11847;SDS011;5983;49.966;8.052;2023-06-14T14:29:33;2.63;;;1.57;;
11847;SDS011;5983;49.966;8.052;2023-06-14T14:32:00;2.33;;;1.40;;
11847;SDS011;5983;49.966;8.052;2023-06-14T14:34:27;2.87;;;1.40;;
11847;SDS011;5983;49.966;8.052;2023-06-14T14:36:54;1.50;;;1.40;;
11847;SDS011;5983;49.966;8.052;2023-06-14T14:39:23;1.87;;;1.67;;
11847;SDS011;5983;49.966;8.052;2023-06-14T14:41:50;1.77;;;1.40;;
11847;SDS011;5983;49.966;8.052;2023-06-14T14:44:17;2.10;;;1.47;;
11847;SDS011;5983;49.966;8.052;2023-06-14T14:46:44;2.43;;;1.50;;
11847;SDS011;5983;49.966;8.052;2023-06-14T14:49:11;2.63;;;1.53;;
11847;SDS011;5983;49.966;8.052;2023-06-14T14:51:38;2.50;;;1.80;;
11847;SDS011;5983;49.966;8.052;2023-06-14T14:54:05;2.17;;;1.50;;
11847;SDS011;5983;49.966;8.052;2023-06-14T14:56:34;6.30;;;2.57;;
11847;SDS011;5983;49.966;8.052;2023-06-14T14:59:02;7.80;;;1.73;;
11847;SDS011;5983;49.966;8.052;2023-06-14T15:01:30;3.20;;;1.80;;
11847;SDS011;5983;49.966;8.052;2023-06-14T15:03:57;2.30;;;1.50;;
11847;SDS011;5983;49.966;8.052;2023-06-14T15:06:24;1.70;;;1.60;;
11847;SDS011;5983;49.966;8.052;2023-06-14T15:08:51;1.60;;;1.40;;
11847;SDS011;5983;49.966;8.052;2023-06-14T15:11:18;4.03;;;1.50;;
11847;SDS011;5983;49.966;8.052;2023-06-14T15:13:47;4.10;;;1.50;;